Time;durP1;ratioP1;P1;durP2;ratioP2;P2;SDS_P1;SDS_P2;PMS_P1;PMS_P2;Temp;Humidity;BMP_temperature;BMP_pressure;BME280_temperature;BME280_humidity;BME280_pressure;Samples;Min_cycle;Max_cycle;Signal;HPM_P1;HPM_P2
2020/12/20 00:00:16;;;;;;;11.37;9.63;;;7.70;99.90;;;;;;4947315;28;20296;-66
2020/12/20 00:02:50;;;;;;;10.03;8.90;;;7.70;99.90;;;;;;4949788;28;20212;-66
2020/12/20 00:05:16;;;;;;;10.03;9.03;;;7.70;99.90;;;;;;4949840;28;20527;-66
2020/12/20 00:07:43;;;;;;;12.77;8.60;;;7.70;99.90;;;;;;4949915;28;20444;-66
2020/12/20 00:10:08;;;;;;;11.33;9.00;;;7.70;99.90;;;;;;4946914;29;20961;-66
2020/12/20 00:12:35;;;;;;;8.73;7.93;;;7.70;99.90;;;;;;4949438;29;20421;-66
2020/12/20 00:15:01;;;;;;;11.10;9.17;;;7.70;99.90;;;;;;4950051;28;20726;-66
2020/12/20 00:17:27;;;;;;;11.93;10.67;;;7.70;99.90;;;;;;4950464;28;20452;-66
2020/12/20 00:19:53;;;;;;;11.37;8.10;;;7.70;99.90;;;;;;4948265;29;20834;-66
2020/12/20 00:22:18;;;;;;;11.10;8.40;;;7.70;99.90;;;;;;4950021;29;20735;-67
2020/12/20 00:24:44;;;;;;;9.77;8.67;;;7.70;99.90;;;;;;4951966;29;20638;-67
2020/12/20 00:27:13;;;;;;;12.30;9.37;;;7.70;99.90;;;;;;4952965;28;20627;-68
2020/12/20 00:29:39;;;;;;;10.13;8.50;;;7.70;99.90;;;;;;4952676;29;20173;-67
2020/12/20 00:32:07;;;;;;;8.83;7.93;;;7.70;99.90;;;;;;4952992;29;20428;-67
2020/12/20 00:34:33;;;;;;;10.03;8.13;;;7.60;99.90;;;;;;4953017;29;20425;-67
2020/12/20 00:36:59;;;;;;;10.70;8.73;;;7.60;99.90;;;;;;4952415;29;20440;-67
2020/12/20 00:39:25;;;;;;;14.03;9.20;;;7.60;99.90;;;;;;4952602;29;20544;-67
2020/12/20 00:41:52;;;;;;;15.40;8.90;;;7.60;99.90;;;;;;4952195;28;20923;-67
2020/12/20 00:44:19;;;;;;;11.90;9.03;;;7.60;99.90;;;;;;4952684;29;20180;-67
2020/12/20 00:46:45;;;;;;;12.90;10.13;;;7.60;99.90;;;;;;4952695;28;20438;-67
2020/12/20 00:49:10;;;;;;;12.03;9.13;;;7.60;99.90;;;;;;4952484;29;20883;-67
2020/12/20 00:51:36;;;;;;;11.83;9.23;;;7.60;99.90;;;;;;4952733;29;20706;-67
2020/12/20 00:54:02;;;;;;;11.30;9.50;;;7.60;99.90;;;;;;4952887;29;20686;-67
2020/12/20 00:56:27;;;;;;;11.20;10.10;;;7.60;99.90;;;;;;4952720;29;20213;-67
2020/12/20 00:58:54;;;;;;;9.53;8.63;;;7.60;99.90;;;;;;4952306;28;20283;-67
2020/12/20 01:01:21;;;;;;;12.80;9.07;;;7.60;99.90;;;;;;4952654;29;20593;-67
2020/12/20 01:03:47;;;;;;;9.23;8.23;;;7.60;99.90;;;;;;4952619;29;20471;-67
2020/12/20 01:06:20;;;;;;;9.20;8.30;;;7.60;99.90;;;;;;4952599;29;20423;-67
2020/12/20 01:08:46;;;;;;;10.53;8.20;;;7.60;99.90;;;;;;4952198;28;20196;-67
2020/12/20 01:11:12;;;;;;;9.83;8.90;;;7.60;99.90;;;;;;4952760;29;20487;-67
2020/12/20 01:13:41;;;;;;;11.83;9.40;;;7.60;99.90;;;;;;4952591;29;20421;-67
2020/12/20 01:16:06;;;;;;;10.77;9.80;;;7.70;99.90;;;;;;4952546;29;20433;-67
2020/12/20 01:18:32;;;;;;;11.00;10.00;;;7.70;99.90;;;;;;4952211;28;20487;-67
2020/12/20 01:20:58;;;;;;;12.17;10.47;;;7.70;99.90;;;;;;4952422;29;20263;-67
2020/12/20 01:23:23;;;;;;;12.13;9.67;;;7.70;99.90;;;;;;4952471;29;20215;-67
2020/12/20 01:25:49;;;;;;;11.70;10.10;;;7.80;99.90;;;;;;4952525;29;20176;-67
2020/12/20 01:28:14;;;;;;;10.90;9.40;;;7.80;99.90;;;;;;4952141;29;20193;-67
2020/12/20 01:30:40;;;;;;;11.43;9.40;;;7.80;99.90;;;;;;4952438;29;20177;-67
2020/12/20 01:33:05;;;;;;;9.20;8.40;;;7.80;99.90;;;;;;4952470;29;20256;-67
2020/12/20 01:35:31;;;;;;;11.90;10.80;;;7.90;99.90;;;;;;4952508;29;20223;-67
2020/12/20 01:37:56;;;;;;;9.90;8.90;;;7.90;99.90;;;;;;4951903;29;20616;-67
2020/12/20 01:40:22;;;;;;;10.73;9.50;;;7.90;99.90;;;;;;4952495;29;20643;-67
2020/12/20 01:42:55;;;;;;;10.70;9.30;;;7.80;99.90;;;;;;4952353;29;20686;-67
2020/12/20 01:45:20;;;;;;;9.30;8.40;;;7.80;99.90;;;;;;4952609;29;20596;-67
2020/12/20 01:47:46;;;;;;;12.20;11.00;;;7.80;99.90;;;;;;4952079;29;20540;-67
2020/12/20 01:50:12;;;;;;;12.53;9.87;;;7.80;99.90;;;;;;4952346;28;20181;-67
2020/12/20 01:52:38;;;;;;;10.10;9.13;;;7.70;99.90;;;;;;4952345;29;20196;-67
2020/12/20 01:55:04;;;;;;;10.83;8.67;;;7.70;99.90;;;;;;4955405;28;20507;-67
2020/12/20 01:57:29;;;;;;;12.10;10.10;;;7.70;99.90;;;;;;4955884;29;20711;-67
2020/12/20 01:59:56;;;;;;;10.53;9.43;;;7.70;99.90;;;;;;4955522;29;20185;-67
2020/12/20 02:02:21;;;;;;;11.43;9.90;;;7.70;99.90;;;;;;4955791;29;20197;-67
2020/12/20 02:04:48;;;;;;;10.73;8.50;;;7.70;99.90;;;;;;4955795;29;20439;-67
2020/12/20 02:07:14;;;;;;;10.73;9.73;;;7.70;99.90;;;;;;4955794;29;20272;-67
2020/12/20 02:09:40;;;;;;;10.27;8.87;;;7.70;99.90;;;;;;4955465;29;20425;-67
2020/12/20 02:12:07;;;;;;;10.47;9.47;;;7.70;99.90;;;;;;4955694;29;21116;-67
2020/12/20 02:14:33;;;;;;;11.10;8.40;;;7.70;99.90;;;;;;4955610;29;20176;-67
2020/12/20 02:16:59;;;;;;;9.67;8.73;;;7.70;99.90;;;;;;4955377;29;20415;-67
2020/12/20 02:19:25;;;;;;;9.80;8.07;;;7.70;99.90;;;;;;4955027;29;20412;-67
2020/12/20 02:21:50;;;;;;;9.30;8.30;;;7.70;99.90;;;;;;4955455;29;20424;-67
2020/12/20 02:24:16;;;;;;;9.17;8.37;;;7.70;99.90;;;;;;4955398;29;20212;-67
2020/12/20 02:26:42;;;;;;;10.87;8.73;;;7.70;99.90;;;;;;4955422;28;20639;-67
2020/12/20 02:29:08;;;;;;;10.10;8.60;;;7.70;99.90;;;;;;4954847;29;20436;-67
2020/12/20 02:31:34;;;;;;;13.87;8.30;;;7.60;99.90;;;;;;4955442;29;20177;-67
2020/12/20 02:33:59;;;;;;;9.03;8.03;;;7.60;99.90;;;;;;4955274;28;20177;-67
2020/12/20 02:36:25;;;;;;;15.30;8.53;;;7.50;99.90;;;;;;4954968;29;20511;-67
2020/12/20 02:38:51;;;;;;;9.87;8.77;;;7.50;99.90;;;;;;4954768;29;20213;-67
2020/12/20 02:41:17;;;;;;;10.43;8.20;;;7.40;99.90;;;;;;4955184;29;20236;-67
2020/12/20 02:43:42;;;;;;;10.40;9.37;;;7.40;99.90;;;;;;4955027;29;20213;-67
2020/12/20 02:46:08;;;;;;;13.60;9.87;;;7.30;99.90;;;;;;4954973;29;20431;-67
2020/12/20 02:48:33;;;;;;;9.37;8.40;;;7.30;99.90;;;;;;4954487;29;20224;-67
2020/12/20 02:50:59;;;;;;;11.50;8.47;;;7.20;99.90;;;;;;4954924;29;20187;-67
2020/12/20 02:53:24;;;;;;;10.40;9.30;;;7.20;99.90;;;;;;4954957;29;20547;-67
2020/12/20 02:55:50;;;;;;;11.20;9.30;;;7.10;99.90;;;;;;4954917;29;20204;-67
2020/12/20 02:58:16;;;;;;;10.03;8.60;;;7.10;99.90;;;;;;4954310;29;20193;-67
2020/12/20 03:00:42;;;;;;;13.70;9.50;;;7.10;99.90;;;;;;4954848;29;20181;-67
2020/12/20 03:03:08;;;;;;;13.50;8.70;;;7.20;99.90;;;;;;4954730;28;20208;-67
2020/12/20 03:05:33;;;;;;;12.30;8.93;;;7.20;99.90;;;;;;4953669;28;20421;-67
2020/12/20 03:07:59;;;;;;;11.10;8.53;;;7.10;99.90;;;;;;4954241;28;20256;-67
2020/12/20 03:10:24;;;;;;;8.93;8.13;;;7.10;99.90;;;;;;4954659;28;20228;-67
2020/12/20 03:12:50;;;;;;;10.03;8.40;;;7.10;99.90;;;;;;4954531;29;20183;-67
2020/12/20 03:15:16;;;;;;;10.47;8.57;;;7.10;99.90;;;;;;4954429;29;20643;-67
2020/12/20 03:17:41;;;;;;;10.60;9.43;;;7.10;99.90;;;;;;4954035;29;20674;-67
2020/12/20 03:20:07;;;;;;;8.70;7.90;;;7.10;99.90;;;;;;4954469;29;20189;-67
2020/12/20 03:22:33;;;;;;;9.77;8.43;;;7.10;99.90;;;;;;4954647;29;20220;-67
2020/12/20 03:24:58;;;;;;;13.80;9.17;;;7.10;99.90;;;;;;4954525;29;20275;-67
2020/12/20 03:27:24;;;;;;;11.37;9.47;;;7.10;99.90;;;;;;4954413;29;20236;-67
2020/12/20 03:29:50;;;;;;;10.70;8.37;;;7.10;99.90;;;;;;4954026;29;20175;-67
2020/12/20 03:32:15;;;;;;;10.20;9.00;;;7.10;99.90;;;;;;4954293;29;20181;-67
2020/12/20 03:34:41;;;;;;;10.17;9.17;;;7.10;99.90;;;;;;4954236;29;20231;-67
2020/12/20 03:37:06;;;;;;;10.60;9.10;;;7.10;99.90;;;;;;4954045;29;20213;-67
2020/12/20 03:39:32;;;;;;;13.30;9.70;;;7.10;99.90;;;;;;4953879;29;20180;-67
2020/12/20 03:41:58;;;;;;;11.20;8.50;;;7.20;99.90;;;;;;4953952;29;20183;-67
2020/12/20 03:44:24;;;;;;;10.43;9.37;;;7.20;99.90;;;;;;4953183;29;20177;-67
2020/12/20 03:46:49;;;;;;;11.23;9.20;;;7.20;99.90;;;;;;4954055;29;20173;-67
2020/12/20 03:49:15;;;;;;;10.10;8.63;;;7.20;99.90;;;;;;4953514;29;20173;-67
2020/12/20 03:51:41;;;;;;;10.37;9.43;;;7.30;99.90;;;;;;4953929;29;20184;-67
2020/12/20 03:54:07;;;;;;;12.63;9.37;;;7.30;99.90;;;;;;4953906;28;20235;-67
2020/12/20 03:56:33;;;;;;;11.23;8.87;;;7.30;99.90;;;;;;4953699;29;20424;-67
2020/12/20 03:58:59;;;;;;;13.40;9.33;;;7.10;99.90;;;;;;4953294;29;20447;-67
2020/12/20 04:01:25;;;;;;;9.90;7.70;;;7.10;99.90;;;;;;4953728;29;20421;-67
2020/12/20 04:03:51;;;;;;;10.60;9.60;;;7.10;99.90;;;;;;4953504;29;20483;-67
2020/12/20 04:06:16;;;;;;;10.00;9.00;;;7.10;99.90;;;;;;4953567;29;20177;-67
2020/12/20 04:08:42;;;;;;;10.53;8.70;;;7.10;99.90;;;;;;4953141;29;20441;-67
2020/12/20 04:11:08;;;;;;;10.27;9.27;;;7.10;99.90;;;;;;4953480;29;20189;-67
2020/12/20 04:13:33;;;;;;;11.70;8.03;;;7.10;99.90;;;;;;4953396;29;20183;-67
2020/12/20 04:16:13;;;;;;;11.67;8.90;;;7.10;99.90;;;;;;4953394;28;20459;-67
2020/12/20 04:18:38;;;;;;;11.70;8.70;;;7.10;99.90;;;;;;4952959;29;20188;-67
2020/12/20 04:21:04;;;;;;;10.30;8.80;;;7.00;99.90;;;;;;4953280;29;20420;-67
2020/12/20 04:23:30;;;;;;;12.33;9.20;;;7.10;99.90;;;;;;4953238;29;20208;-67
2020/12/20 04:25:55;;;;;;;11.57;8.20;;;7.00;99.90;;;;;;4953286;29;21040;-67
2020/12/20 04:28:21;;;;;;;10.97;9.60;;;7.10;99.90;;;;;;4952762;29;20201;-67
2020/12/20 04:30:47;;;;;;;10.57;9.37;;;7.10;99.90;;;;;;4953113;29;20205;-67
2020/12/20 04:33:13;;;;;;;12.30;9.00;;;7.10;99.90;;;;;;4953042;29;20424;-67
2020/12/20 04:35:39;;;;;;;9.93;8.77;;;7.20;99.90;;;;;;4953071;29;20930;-67
2020/12/20 04:38:04;;;;;;;10.43;8.37;;;7.20;99.90;;;;;;4952545;29;20279;-67
2020/12/20 04:40:31;;;;;;;10.30;9.30;;;7.30;99.90;;;;;;4953055;28;20181;-67
2020/12/20 04:43:08;;;;;;;10.97;8.30;;;7.30;99.90;;;;;;4952842;29;20287;-67
2020/12/20 04:45:34;;;;;;;9.33;8.37;;;7.40;99.90;;;;;;4952903;29;20412;-67
2020/12/20 04:48:01;;;;;;;10.43;9.60;;;7.40;99.90;;;;;;4952452;29;20475;-67
2020/12/20 04:50:28;;;;;;;10.23;8.80;;;7.40;99.90;;;;;;4952835;29;20428;-67
2020/12/20 04:52:56;;;;;;;10.63;9.13;;;7.40;99.90;;;;;;4952862;29;20511;-67
2020/12/20 04:55:23;;;;;;;10.13;9.23;;;7.40;99.90;;;;;;4952806;29;20440;-67
2020/12/20 04:57:50;;;;;;;14.20;9.60;;;7.40;99.90;;;;;;4952358;29;20942;-67
2020/12/20 05:00:16;;;;;;;9.37;8.50;;;7.50;99.90;;;;;;4952712;29;20428;-67
2020/12/20 05:02:42;;;;;;;9.90;8.93;;;7.60;99.90;;;;;;4952659;28;20467;-67
2020/12/20 05:05:08;;;;;;;10.50;8.83;;;7.50;99.90;;;;;;4952724;28;20420;-67
2020/12/20 05:07:34;;;;;;;10.07;9.03;;;7.40;99.90;;;;;;4952674;29;20235;-67
2020/12/20 05:09:59;;;;;;;10.57;8.30;;;7.40;99.90;;;;;;4952526;29;20169;-67
2020/12/20 05:12:30;;;;;;;10.30;9.30;;;7.40;99.90;;;;;;4952661;29;20483;-67
2020/12/20 05:14:56;;;;;;;14.53;8.40;;;7.40;99.90;;;;;;4952816;29;20165;-67
2020/12/20 05:17:22;;;;;;;11.70;8.63;;;7.50;99.90;;;;;;4952750;29;20451;-68
2020/12/20 05:19:48;;;;;;;9.80;8.87;;;7.50;99.90;;;;;;4952459;29;20424;-67
2020/12/20 05:22:18;;;;;;;14.10;9.00;;;7.50;99.90;;;;;;4952528;29;20223;-67
2020/12/20 05:24:49;;;;;;;11.27;8.93;;;7.40;99.90;;;;;;4953014;29;20161;-68
2020/12/20 05:27:30;;;;;;;13.23;9.53;;;7.40;99.90;;;;;;4952576;29;20527;-68
2020/12/20 05:30:31;;;;;;;9.27;8.37;;;7.40;99.90;;;;;;4955210;29;20427;-68
2020/12/20 05:32:56;;;;;;;11.50;9.40;;;7.30;99.90;;;;;;4954044;29;20443;-67
2020/12/20 05:35:22;;;;;;;10.90;8.67;;;7.30;99.90;;;;;;4955982;28;20512;-68
2020/12/20 05:37:47;;;;;;;11.67;8.70;;;7.20;99.90;;;;;;4956028;29;20629;-68
2020/12/20 05:40:34;;;;;;;8.93;8.17;;;7.30;99.90;;;;;;4956432;29;20181;-68
2020/12/20 05:43:05;;;;;;;8.67;7.87;;;7.20;99.90;;;;;;4956211;29;20204;-68
2020/12/20 05:45:33;;;;;;;10.20;9.10;;;7.20;99.90;;;;;;4956263;29;20439;-68
2020/12/20 05:47:58;;;;;;;9.60;8.70;;;7.10;99.90;;;;;;4955834;29;20531;-67
2020/12/20 05:50:28;;;;;;;9.60;8.60;;;7.10;99.90;;;;;;4956145;29;20512;-68
2020/12/20 05:53:05;;;;;;;8.53;7.77;;;7.00;99.90;;;;;;4956085;29;20185;-68
2020/12/20 05:55:34;;;;;;;14.10;10.67;;;7.00;99.90;;;;;;4956134;29;20423;-67
2020/12/20 05:58:11;;;;;;;9.93;8.60;;;7.00;99.90;;;;;;4955486;28;20976;-68
2020/12/20 06:00:38;;;;;;;9.83;8.83;;;6.90;99.90;;;;;;4956036;29;20478;-68
2020/12/20 06:03:05;;;;;;;9.07;8.07;;;6.90;99.90;;;;;;4955715;29;20460;-68
2020/12/20 06:05:39;;;;;;;9.20;8.30;;;7.00;99.90;;;;;;4955824;29;20455;-68
2020/12/20 06:08:16;;;;;;;9.27;8.10;;;7.00;99.90;;;;;;4955344;29;20491;-68
2020/12/20 06:10:47;;;;;;;10.40;9.40;;;7.00;99.90;;;;;;4955602;29;20423;-67
2020/12/20 06:13:18;;;;;;;14.07;9.67;;;6.90;99.90;;;;;;4955573;29;20582;-68
2020/12/20 06:15:46;;;;;;;11.43;8.40;;;6.90;99.90;;;;;;4955583;29;20787;-68
2020/12/20 06:18:14;;;;;;;12.13;9.37;;;6.90;99.90;;;;;;4955121;29;20434;-68
2020/12/20 06:20:50;;;;;;;11.67;8.80;;;6.90;99.90;;;;;;4955455;29;20412;-68
2020/12/20 06:23:21;;;;;;;12.50;9.00;;;6.80;99.90;;;;;;4955317;29;21186;-67
2020/12/20 06:25:48;;;;;;;11.60;9.33;;;6.90;99.90;;;;;;4955483;29;20424;-68
2020/12/20 06:28:17;;;;;;;10.57;9.00;;;6.80;99.90;;;;;;4954766;29;20441;-68
2020/12/20 06:30:43;;;;;;;10.20;7.53;;;6.80;99.90;;;;;;4955274;28;20421;-67
2020/12/20 06:33:15;;;;;;;8.67;7.83;;;6.80;99.90;;;;;;4955163;29;20425;-68
2020/12/20 06:35:41;;;;;;;11.33;7.77;;;6.80;99.90;;;;;;4955267;29;20515;-68
2020/12/20 06:38:12;;;;;;;10.70;8.90;;;6.90;99.90;;;;;;4954721;29;20492;-67
2020/12/20 06:40:37;;;;;;;10.03;8.70;;;6.90;99.90;;;;;;4955109;28;20259;-68
2020/12/20 06:43:03;;;;;;;10.10;9.10;;;6.90;99.90;;;;;;4955018;29;20543;-67
2020/12/20 06:45:30;;;;;;;11.47;9.50;;;6.90;99.90;;;;;;4954959;29;20181;-67
2020/12/20 06:48:03;;;;;;;10.00;9.10;;;6.90;99.90;;;;;;4954595;29;20754;-67
2020/12/20 06:50:38;;;;;;;10.97;9.00;;;6.90;99.90;;;;;;4954953;29;20428;-68
2020/12/20 06:53:04;;;;;;;8.93;8.03;;;6.90;99.90;;;;;;4954851;29;20448;-67
2020/12/20 06:55:30;;;;;;;8.97;7.70;;;6.80;99.90;;;;;;4954815;29;20417;-68
2020/12/20 06:58:02;;;;;;;9.60;8.03;;;6.80;99.90;;;;;;4954393;29;20446;-67
2020/12/20 07:00:42;;;;;;;15.23;9.30;;;6.80;99.90;;;;;;4954818;29;20176;-67
2020/12/20 07:03:23;;;;;;;9.83;8.93;;;6.70;99.90;;;;;;4954707;28;20460;-67
2020/12/20 07:05:56;;;;;;;9.67;8.33;;;6.70;99.90;;;;;;4954836;29;20416;-68
2020/12/20 07:08:30;;;;;;;9.30;8.40;;;6.80;99.90;;;;;;4954369;29;20443;-67
2020/12/20 07:10:58;;;;;;;10.20;8.97;;;6.70;99.90;;;;;;4954631;29;21089;-67
2020/12/20 07:13:37;;;;;;;9.47;8.30;;;6.70;99.90;;;;;;4954570;29;20424;-68
2020/12/20 07:16:07;;;;;;;10.83;8.40;;;6.70;99.90;;;;;;4954714;29;20431;-68
2020/12/20 07:18:58;;;;;;;9.03;8.23;;;6.70;99.90;;;;;;4954238;28;20424;-67
2020/12/20 07:21:24;;;;;;;11.07;8.23;;;6.80;99.90;;;;;;4954676;29;20922;-68
2020/12/20 07:24:12;;;;;;;12.77;8.53;;;6.70;99.90;;;;;;4954617;29;20460;-68
2020/12/20 07:26:39;;;;;;;11.63;8.53;;;6.70;99.90;;;;;;4954798;29;20861;-68
2020/12/20 07:29:06;;;;;;;14.40;9.73;;;6.70;99.90;;;;;;4954078;29;20448;-68
2020/12/20 07:31:32;;;;;;;9.83;8.90;;;6.70;99.90;;;;;;4954474;29;20416;-68
2020/12/20 07:33:58;;;;;;;12.33;8.93;;;6.70;99.90;;;;;;4954284;29;20796;-67
2020/12/20 07:36:25;;;;;;;14.73;9.20;;;6.70;99.90;;;;;;4954042;29;20787;-68
2020/12/20 07:38:51;;;;;;;12.00;7.90;;;6.80;99.90;;;;;;4953845;29;20839;-68
2020/12/20 07:41:18;;;;;;;10.10;8.97;;;6.80;99.90;;;;;;4954099;29;20795;-68
2020/12/20 07:43:44;;;;;;;11.77;8.47;;;6.90;99.90;;;;;;4953929;29;20460;-67
2020/12/20 07:46:11;;;;;;;10.60;8.80;;;6.90;99.90;;;;;;4953905;29;20817;-68
2020/12/20 07:48:38;;;;;;;12.10;9.00;;;6.90;99.90;;;;;;4953406;29;20508;-68
2020/12/20 07:51:11;;;;;;;14.20;8.73;;;7.00;99.90;;;;;;4953350;28;20420;-68
2020/12/20 07:53:55;;;;;;;10.50;9.00;;;7.10;99.90;;;;;;4953783;29;20503;-67
2020/12/20 07:56:29;;;;;;;16.33;10.10;;;7.20;99.90;;;;;;4953689;29;20479;-68
2020/12/20 07:59:02;;;;;;;12.23;9.43;;;7.40;99.90;;;;;;4953242;28;20535;-68
2020/12/20 08:01:28;;;;;;;13.53;8.40;;;7.40;99.90;;;;;;4953673;29;20431;-68
2020/12/20 08:04:05;;;;;;;10.23;9.20;;;7.50;99.90;;;;;;4953609;29;20460;-67
2020/12/20 08:06:33;;;;;;;11.50;9.17;;;7.60;99.90;;;;;;4947084;29;20168;-68
2020/12/20 08:09:05;;;;;;;13.33;8.90;;;7.60;99.90;;;;;;4943046;29;20449;-68
2020/12/20 08:11:31;;;;;;;10.93;8.77;;;7.80;99.90;;;;;;4950635;29;20460;-68
2020/12/20 08:14:01;;;;;;;14.73;10.90;;;7.90;99.90;;;;;;4953318;29;20431;-68
2020/12/20 08:16:29;;;;;;;16.60;11.40;;;8.10;99.90;;;;;;4953423;29;20758;-67
2020/12/20 08:19:01;;;;;;;9.67;8.70;;;8.30;99.90;;;;;;4952901;29;20451;-68
2020/12/20 08:21:51;;;;;;;11.77;9.47;;;8.50;99.90;;;;;;4953474;29;20452;-67
2020/12/20 08:24:18;;;;;;;11.87;9.33;;;8.60;99.90;;;;;;4952918;29;20468;-65
2020/12/20 08:26:44;;;;;;;13.70;9.80;;;8.80;99.90;;;;;;4953331;29;20424;-65
2020/12/20 08:29:17;;;;;;;10.63;8.90;;;9.00;99.90;;;;;;4952939;29;20504;-65
2020/12/20 08:31:44;;;;;;;10.60;8.70;;;9.40;99.90;;;;;;4953195;29;20468;-66
2020/12/20 08:34:16;;;;;;;13.07;10.70;;;9.70;99.90;;;;;;4953216;29;20420;-65
2020/12/20 08:36:44;;;;;;;13.17;9.47;;;9.80;99.90;;;;;;4952960;28;20793;-65
2020/12/20 08:39:10;;;;;;;15.63;12.20;;;9.70;99.90;;;;;;4952762;29;20460;-66
2020/12/20 08:41:36;;;;;;;15.90;9.70;;;9.80;99.90;;;;;;4953074;29;20430;-65
2020/12/20 08:44:12;;;;;;;14.13;9.40;;;9.70;99.90;;;;;;4953174;29;20467;-65
2020/12/20 08:46:43;;;;;;;14.87;10.00;;;9.40;99.90;;;;;;4953488;29;20184;-65
2020/12/20 08:49:15;;;;;;;12.93;9.70;;;9.40;99.90;;;;;;4952876;29;20535;-65
2020/12/20 08:51:43;;;;;;;12.77;11.03;;;9.40;99.90;;;;;;4953280;29;20416;-66
2020/12/20 08:54:11;;;;;;;14.50;10.10;;;9.50;99.90;;;;;;4953334;28;20970;-66
2020/12/20 08:56:54;;;;;;;10.83;9.73;;;9.40;99.90;;;;;;4952834;29;20471;-66
2020/12/20 08:59:31;;;;;;;10.43;9.33;;;9.40;99.90;;;;;;4952467;29;20424;-66
2020/12/20 09:01:58;;;;;;;10.27;9.27;;;9.60;99.90;;;;;;4953125;29;20926;-66
2020/12/20 09:04:28;;;;;;;12.00;10.27;;;9.50;99.90;;;;;;4951827;28;20464;-66
2020/12/20 09:06:59;;;;;;;12.10;9.90;;;9.60;99.90;;;;;;4952689;28;20499;-67
2020/12/20 09:09:25;;;;;;;10.30;9.20;;;9.90;99.90;;;;;;4952338;29;20427;-67
2020/12/20 09:11:51;;;;;;;11.90;10.30;;;10.30;99.90;;;;;;4952723;29;20424;-66
2020/12/20 09:14:16;;;;;;;9.50;8.57;;;11.50;99.90;;;;;;4952660;29;20420;-67
2020/12/20 09:16:43;;;;;;;8.70;7.97;;;12.50;99.90;;;;;;4952648;29;20184;-67
2020/12/20 09:19:14;;;;;;;10.93;9.83;;;13.70;99.90;;;;;;4952255;29;20671;-66
2020/12/20 09:21:41;;;;;;;10.90;9.80;;;14.90;99.90;;;;;;4952551;29;20926;-67
2020/12/20 09:24:06;;;;;;;10.50;8.93;;;15.50;98.90;;;;;;4952487;29;20663;-66
2020/12/20 09:26:32;;;;;;;10.50;9.57;;;16.50;96.40;;;;;;4951259;29;20499;-66
2020/12/20 09:28:58;;;;;;;9.80;8.90;;;16.60;94.60;;;;;;4952124;29;20239;-67
2020/12/20 09:31:26;;;;;;;10.90;10.00;;;16.90;94.10;;;;;;4952486;29;20184;-66
2020/12/20 09:33:52;;;;;;;11.33;10.23;;;17.70;92.40;;;;;;4952562;29;20177;-67
2020/12/20 09:36:25;;;;;;;10.70;9.70;;;17.60;90.60;;;;;;4952370;28;20460;-67
2020/12/20 09:38:56;;;;;;;11.00;9.90;;;18.20;89.10;;;;;;4952047;29;20853;-67
2020/12/20 09:41:27;;;;;;;14.87;10.03;;;16.90;90.50;;;;;;4952475;29;20997;-66
2020/12/20 09:43:53;;;;;;;11.47;10.37;;;15.90;92.00;;;;;;4952364;28;20902;-66
2020/12/20 09:46:35;;;;;;;10.90;9.90;;;14.80;94.40;;;;;;4952445;28;21023;-66
2020/12/20 09:49:02;;;;;;;11.00;10.00;;;14.00;97.00;;;;;;4951936;29;20440;-66
2020/12/20 09:51:30;;;;;;;13.00;11.60;;;13.40;98.80;;;;;;4952581;28;20825;-66
2020/12/20 09:53:56;;;;;;;11.97;10.87;;;12.80;99.90;;;;;;4952455;28;20970;-67
2020/12/20 09:56:21;;;;;;;12.50;10.83;;;12.70;99.90;;;;;;4952625;28;20548;-66
2020/12/20 09:58:47;;;;;;;14.50;10.20;;;12.40;99.90;;;;;;4952125;28;20232;-66
2020/12/20 10:01:21;;;;;;;11.73;10.57;;;11.90;99.90;;;;;;4952649;28;20177;-66
2020/12/20 10:03:47;;;;;;;13.37;11.30;;;11.30;99.90;;;;;;4952483;28;20463;-66
2020/12/20 10:06:14;;;;;;;12.40;10.03;;;10.90;99.90;;;;;;4952608;28;20429;-67
2020/12/20 10:08:40;;;;;;;12.13;11.00;;;10.90;99.90;;;;;;4951884;29;20651;-66
2020/12/20 10:11:07;;;;;;;11.63;10.43;;;10.70;99.90;;;;;;4952230;28;20910;-66
2020/12/20 10:13:33;;;;;;;13.13;10.50;;;10.70;99.90;;;;;;4952235;28;20495;-66
2020/12/20 10:15:58;;;;;;;13.67;12.43;;;10.50;99.90;;;;;;4954869;28;20567;-66
2020/12/20 10:18:23;;;;;;;15.07;12.70;;;10.30;99.90;;;;;;4955035;29;20205;-66
2020/12/20 10:20:49;;;;;;;16.20;11.93;;;10.20;99.90;;;;;;4955602;28;20642;-66
2020/12/20 10:23:15;;;;;;;13.90;11.60;;;10.10;99.90;;;;;;4955321;29;20819;-66
2020/12/20 10:25:40;;;;;;;14.30;12.80;;;9.90;99.90;;;;;;4955537;28;20173;-66
2020/12/20 10:28:06;;;;;;;12.43;10.90;;;9.80;99.90;;;;;;4951021;28;20197;-67
2020/12/20 10:30:32;;;;;;;14.10;12.73;;;9.80;99.90;;;;;;4948090;29;20555;-66
2020/12/20 10:32:58;;;;;;;16.40;12.20;;;9.80;99.90;;;;;;4951847;29;20516;-66
2020/12/20 10:35:23;;;;;;;14.40;12.90;;;9.80;99.90;;;;;;4951745;29;20639;-66
2020/12/20 10:37:50;;;;;;;14.57;13.17;;;9.70;99.90;;;;;;4951535;29;20874;-66
2020/12/20 10:40:16;;;;;;;16.00;12.97;;;9.90;99.90;;;;;;4951772;29;20173;-67
2020/12/20 10:42:42;;;;;;;16.03;12.60;;;9.90;99.90;;;;;;4952001;29;20474;-66
2020/12/20 10:45:07;;;;;;;15.70;13.87;;;9.80;99.90;;;;;;4952043;29;20187;-67
2020/12/20 10:47:33;;;;;;;13.17;11.97;;;9.90;99.90;;;;;;4951738;29;20303;-65
2020/12/20 10:49:58;;;;;;;12.73;11.43;;;9.90;99.90;;;;;;4951902;28;20173;-65
2020/12/20 10:52:24;;;;;;;13.00;11.67;;;10.00;99.90;;;;;;4951784;29;20184;-65
2020/12/20 10:54:49;;;;;;;14.13;12.83;;;10.00;99.90;;;;;;4951756;29;20188;-65
2020/12/20 10:57:15;;;;;;;13.57;11.80;;;10.10;99.90;;;;;;4951422;29;20192;-66
2020/12/20 10:59:40;;;;;;;12.47;11.30;;;10.20;99.90;;;;;;4951267;29;20188;-66
2020/12/20 11:02:06;;;;;;;12.33;11.13;;;10.30;99.90;;;;;;4951279;29;20180;-66
2020/12/20 11:04:32;;;;;;;13.30;11.87;;;10.50;99.90;;;;;;4951304;29;20263;-66
2020/12/20 11:06:58;;;;;;;15.90;13.30;;;10.70;99.90;;;;;;4951234;29;20423;-65
2020/12/20 11:09:25;;;;;;;12.87;11.67;;;10.90;99.90;;;;;;4950683;29;20608;-66
2020/12/20 11:11:51;;;;;;;14.40;12.13;;;11.50;99.90;;;;;;4951433;28;20475;-66
2020/12/20 11:14:17;;;;;;;12.43;11.30;;;12.10;99.90;;;;;;4951282;29;20443;-66
2020/12/20 11:16:42;;;;;;;14.20;11.90;;;12.70;99.90;;;;;;4951048;29;20416;-66
2020/12/20 11:19:08;;;;;;;14.10;11.13;;;13.20;99.90;;;;;;4950618;29;20226;-66
2020/12/20 11:21:34;;;;;;;10.00;9.00;;;13.70;99.90;;;;;;4951312;28;20272;-67
2020/12/20 11:24:00;;;;;;;12.90;10.57;;;14.00;99.90;;;;;;4949984;29;20575;-66
2020/12/20 11:26:26;;;;;;;14.17;12.87;;;14.00;99.90;;;;;;4950877;28;20181;-66
2020/12/20 11:28:53;;;;;;;13.90;11.37;;;14.10;99.90;;;;;;4950766;29;20797;-66
2020/12/20 11:31:21;;;;;;;12.60;11.50;;;13.80;99.90;;;;;;4951040;29;20420;-66
2020/12/20 11:33:47;;;;;;;11.90;10.87;;;13.60;99.90;;;;;;4951271;29;20428;-66
2020/12/20 11:36:21;;;;;;;12.43;9.33;;;13.50;99.90;;;;;;4950909;28;20921;-66
2020/12/20 11:38:48;;;;;;;17.20;10.60;;;13.40;99.90;;;;;;4950594;28;20522;-66
2020/12/20 11:41:14;;;;;;;12.33;11.30;;;13.40;99.90;;;;;;4951191;28;20432;-66
2020/12/20 11:43:41;;;;;;;13.40;11.90;;;13.50;99.90;;;;;;4950926;29;20479;-66
2020/12/20 11:46:09;;;;;;;13.50;11.67;;;13.70;99.90;;;;;;4950808;28;20444;-66
2020/12/20 11:48:34;;;;;;;14.30;12.80;;;13.90;99.90;;;;;;4950518;29;20436;-66
2020/12/20 11:51:00;;;;;;;11.20;10.20;;;14.00;99.90;;;;;;4950471;29;20658;-66
2020/12/20 11:53:26;;;;;;;11.03;10.00;;;14.30;99.90;;;;;;4950675;29;20180;-66
2020/12/20 11:55:52;;;;;;;11.03;9.70;;;14.40;99.90;;;;;;4950155;28;20551;-66
2020/12/20 11:58:17;;;;;;;9.87;9.00;;;14.40;99.90;;;;;;4950167;29;20440;-66
2020/12/20 12:00:44;;;;;;;8.43;7.63;;;14.40;99.90;;;;;;4950469;29;20271;-66
2020/12/20 12:03:10;;;;;;;10.63;8.80;;;14.40;99.90;;;;;;4950145;28;20205;-66
2020/12/20 12:05:37;;;;;;;9.60;7.70;;;14.40;99.90;;;;;;4950465;28;20910;-66
2020/12/20 12:08:05;;;;;;;9.80;8.07;;;14.30;99.90;;;;;;4946586;29;20857;-66
2020/12/20 12:10:31;;;;;;;9.80;6.90;;;14.30;99.90;;;;;;4938705;28;20429;-66
2020/12/20 12:12:56;;;;;;;9.60;6.77;;;14.50;99.90;;;;;;4931245;29;20496;-67
2020/12/20 12:15:22;;;;;;;7.27;6.47;;;14.40;99.90;;;;;;4931202;29;20213;-67
2020/12/20 12:17:47;;;;;;;6.63;6.07;;;14.20;99.90;;;;;;4930524;29;20208;-66
2020/12/20 12:20:13;;;;;;;7.13;6.50;;;14.00;99.90;;;;;;4930980;29;20296;-67
2020/12/20 12:22:38;;;;;;;14.13;8.23;;;13.80;99.90;;;;;;4930905;29;20740;-67
2020/12/20 12:25:04;;;;;;;8.03;7.23;;;13.70;99.90;;;;;;4943409;29;20722;-67
2020/12/20 12:27:30;;;;;;;9.23;7.17;;;13.60;99.90;;;;;;4949935;28;20291;-65
2020/12/20 12:29:55;;;;;;;9.80;8.33;;;13.60;99.90;;;;;;4949092;29;20651;-65
2020/12/20 12:32:21;;;;;;;10.43;7.00;;;13.10;99.90;;;;;;4950136;29;20200;-65
2020/12/20 12:34:46;;;;;;;7.53;6.80;;;12.80;99.90;;;;;;4935909;29;20174;-65
2020/12/20 12:37:12;;;;;;;9.33;7.13;;;12.70;99.90;;;;;;4931299;29;20601;-64
2020/12/20 12:39:37;;;;;;;7.90;6.90;;;12.70;99.90;;;;;;4930878;29;20205;-64
2020/12/20 12:42:04;;;;;;;10.63;7.00;;;12.70;99.90;;;;;;4930644;29;20208;-64
2020/12/20 12:44:30;;;;;;;10.77;8.70;;;12.60;99.90;;;;;;4930666;28;20213;-65